M I D A S
Marine Information and Data Acquisition System
Tripno 1872 of the Zeeleeuw from 2010-04-30 10:37:57 to 2010-04-30 13:23:04
Back to CruiseResearch ActivitiesStationsMapUnderway DataData graphs

EquipmentUnitsComment
TimeDGPSUTC
LatitudeDGPSDM.mWGS84
LongitudeDGPSDM.mWGS84
HeadingGyrodeg 
SOGDGPSknotsSpeed over ground
COGDGPSdegCourse over ground
DepthEcho soundermeters200 kHz
Missing or incorrect values are displayed as -999
Navigation data collected by the RV Zeeleeuw from 2010-04-30 10:41:07 to 2010-04-30 13:44:27
                                                                                    Next 1000 lines
Time Latitude Longitude Heading SOG COG Depth
2010-04-30 10:41:16 51°13.662 2°55.959 112.7 0.5 302 6.6
2010-04-30 10:41:21 51°13.662 2°55.957 112.8 0.9 296 6.6
2010-04-30 10:41:26 51°13.662 2°55.955 112.8 1.2 299 6.6
2010-04-30 10:41:31 51°13.664 2°55.952 112.8 1.5 297 6.7
2010-04-30 10:41:36 51°13.665 2°55.948 112.6 1.7 297 6.8
2010-04-30 10:41:41 51°13.666 2°55.945 112.2 2 297 -999
2010-04-30 10:41:47 51°13.668 2°55.94 112.1 2.2 294 -999
2010-04-30 10:41:53 51°13.67 2°55.934 112.1 2.4 295 -999
2010-04-30 10:41:58 51°13.671 2°55.929 112.3 2.7 295 -999
2010-04-30 10:42:04 51°13.673 2°55.922 112.3 2.8 294 -999
2010-04-30 10:42:09 51°13.675 2°55.916 111.9 3 293 -999
2010-04-30 10:42:14 51°13.677 2°55.91 111.1 3.2 292 -999
2010-04-30 10:42:19 51°13.679 2°55.903 110 3.3 291 -999
2010-04-30 10:42:24 51°13.681 2°55.896 109.4 3.5 291 -999
2010-04-30 10:42:29 51°13.683 2°55.888 108.6 3.7 289 -999
2010-04-30 10:42:34 51°13.684 2°55.88 107.8 3.9 288 -999
2010-04-30 10:42:39 51°13.686 2°55.872 106.8 4 287 -999
2010-04-30 10:42:44 51°13.687 2°55.863 105.7 4 287 -999
2010-04-30 10:42:49 51°13.689 2°55.855 104.8 4 286 -999
2010-04-30 10:42:54 51°13.69 2°55.846 103.9 4.1 285 -999
2010-04-30 10:42:59 51°13.692 2°55.837 103.1 4.1 285 -999
2010-04-30 10:43:04 51°13.693 2°55.829 102.2 3.9 284 -999
2010-04-30 10:43:09 51°13.694 2°55.82 101.5 3.9 283 -999
2010-04-30 10:43:14 51°13.695 2°55.812 101 3.9 282 -999
2010-04-30 10:43:19 51°13.697 2°55.803 100.9 3.9 282 -999
2010-04-30 10:43:24 51°13.698 2°55.795 100.7 3.8 282 -999
2010-04-30 10:43:29 51°13.699 2°55.788 100.6 3.5 282 -999
2010-04-30 10:43:34 51°13.7 2°55.78 100.9 3.4 283 -999
2010-04-30 10:43:39 51°13.701 2°55.773 101.3 3.2 283 -999
2010-04-30 10:43:44 51°13.702 2°55.767 101.7 2.6 284 -999
2010-04-30 10:43:49 51°13.702 2°55.763 101.6 1.8 283 4.6
2010-04-30 10:43:54 51°13.703 2°55.76 99.2 1.1 288 -999
2010-04-30 10:43:59 51°13.703 2°55.759 95.9 0.6 297 4.8
2010-04-30 10:44:04 51°13.703 2°55.759 90.5 0.3 336 5
2010-04-30 10:44:09 51°13.704 2°55.759 85.5 0.5 47 -999
2010-04-30 10:44:14 51°13.704 2°55.76 78.5 0.7 57 4.7
2010-04-30 10:44:19 51°13.705 2°55.761 72.6 0.7 44 -999
2010-04-30 10:44:24 51°13.705 2°55.762 67 0.5 44 4.8
2010-04-30 10:44:29 51°13.706 2°55.762 63 0.2 7 -999
2010-04-30 10:44:34 51°13.706 2°55.762 59.1 0.3 271 -999
2010-04-30 10:44:39 51°13.705 2°55.761 55.2 0.5 248 -999
2010-04-30 10:44:44 51°13.705 2°55.759 52.8 0.9 240 -999
2010-04-30 10:44:49 51°13.704 2°55.756 50.1 1.3 236 4.6
2010-04-30 10:44:54 51°13.703 2°55.753 47.9 1.6 232 -999
2010-04-30 10:44:59 51°13.701 2°55.751 45.1 1.7 232 -999
2010-04-30 10:45:04 51°13.699 2°55.748 43.3 1.6 227 -999
2010-04-30 10:45:09 51°13.698 2°55.746 41.5 1.5 228 -999
2010-04-30 10:45:14 51°13.697 2°55.743 39.7 1.2 229 -999
2010-04-30 10:45:19 51°13.696 2°55.742 38.1 0.7 231 -999
2010-04-30 10:45:24 51°13.696 2°55.742 35.7 0.3 316 -999
2010-04-30 10:45:29 51°13.697 2°55.742 30.4 0.5 4 -999
2010-04-30 10:45:34 51°13.698 2°55.742 24.9 0.9 3 -999
2010-04-30 10:45:39 51°13.7 2°55.742 19.2 1.3 4 -999
2010-04-30 10:45:44 51°13.702 2°55.742 14.3 1.9 358 -999
2010-04-30 10:45:49 51°13.706 2°55.741 7.3 2.4 352 4.8
2010-04-30 10:45:54 51°13.71 2°55.74 0.8 3 343 -999
2010-04-30 10:45:59 51°13.714 2°55.737 352.7 3.5 340 -999
2010-04-30 10:46:04 51°13.719 2°55.734 344.3 4.2 334 -999
2010-04-30 10:46:09 51°13.725 2°55.728 338.2 4.7 330 -999
2010-04-30 10:46:14 51°13.731 2°55.723 335.2 5.3 333 -999
2010-04-30 10:46:19 51°13.738 2°55.717 334.2 5.7 329 -999
2010-04-30 10:46:24 51°13.746 2°55.71 333.7 6.5 331 -999
2010-04-30 10:46:29 51°13.754 2°55.702 333.2 7 331 -999
2010-04-30 10:46:34 51°13.763 2°55.695 333.1 7.5 333 12.1
2010-04-30 10:46:39 51°13.773 2°55.687 333.3 7.8 334 -999
2010-04-30 10:46:44 51°13.783 2°55.679 333.9 8.2 333 -999
2010-04-30 10:46:49 51°13.794 2°55.671 334 8.5 334 -999
2010-04-30 10:46:54 51°13.805 2°55.662 332.9 8.8 331 -999
2010-04-30 10:46:59 51°13.816 2°55.652 332.3 9 332 -999
2010-04-30 10:47:04 51°13.827 2°55.643 332.3 9.3 332 -999
2010-04-30 10:47:09 51°13.839 2°55.633 332.7 9.5 333 11.5
2010-04-30 10:47:14 51°13.851 2°55.623 333.7 9.6 334 11.3
2010-04-30 10:47:19 51°13.863 2°55.614 335.1 9.7 336 11.4
2010-04-30 10:47:24 51°13.875 2°55.606 336.8 9.8 336 12.3
2010-04-30 10:47:29 51°13.888 2°55.597 337.3 9.9 335 11.8
2010-04-30 10:47:34 51°13.901 2°55.588 337.2 9.9 337 -999
2010-04-30 10:47:39 51°13.913 2°55.579 338 10 337 -999
2010-04-30 10:47:44 51°13.926 2°55.571 338.2 10.1 337 -999
2010-04-30 10:47:49 51°13.939 2°55.562 338.1 10.1 337 11.5
2010-04-30 10:47:54 51°13.952 2°55.554 338.4 10.1 337 11.5
2010-04-30 10:47:59 51°13.965 2°55.544 338.5 10.1 336 11.5
2010-04-30 10:48:04 51°13.977 2°55.535 337.6 10.1 335 -999
2010-04-30 10:48:09 51°13.99 2°55.526 336.8 10.1 336 -999
2010-04-30 10:48:14 51°14.003 2°55.517 337.5 10.1 336 11.4
2010-04-30 10:48:19 51°14.016 2°55.508 337.8 10.1 336 11.5
2010-04-30 10:48:24 51°14.029 2°55.499 338.3 10.1 336 -999
2010-04-30 10:48:29 51°14.042 2°55.49 337.9 10.1 335 -999
2010-04-30 10:48:34 51°14.054 2°55.48 337 10.2 334 11.4
2010-04-30 10:48:39 51°14.067 2°55.471 336.8 10.2 335 11.5
2010-04-30 10:48:44 51°14.08 2°55.46 336.7 10.3 333 11.4
2010-04-30 10:48:49 51°14.092 2°55.45 335.7 10.3 333 11.4
2010-04-30 10:48:54 51°14.105 2°55.439 334.9 10.4 333 -999
2010-04-30 10:48:59 51°14.118 2°55.429 334.7 10.4 333 -999
2010-04-30 10:49:04 51°14.131 2°55.418 334.6 10.4 333 -999
2010-04-30 10:49:09 51°14.144 2°55.408 334 10.5 333 -999
2010-04-30 10:49:14 51°14.157 2°55.397 334.4 10.6 333 -999
2010-04-30 10:49:19 51°14.17 2°55.386 334.8 10.7 333 -999
2010-04-30 10:49:24 51°14.184 2°55.375 334.9 10.9 332 -999
2010-04-30 10:49:29 51°14.197 2°55.364 334.2 11 332 11.6
2010-04-30 10:49:34 51°14.21 2°55.351 333.2 11.1 330 11.4
2010-04-30 10:49:39 51°14.224 2°55.34 332.5 11.1 331 11.5
2010-04-30 10:49:43 51°14.234 2°55.33 332.3 11.2 331 11.1
2010-04-30 10:49:48 51°14.248 2°55.318 332.3 11.2 331 11.3
2010-04-30 10:49:53 51°14.262 2°55.306 332.5 11.2 330 11
2010-04-30 10:49:58 51°14.274 2°55.292 331.3 11.2 327 11.1
2010-04-30 10:50:03 51°14.288 2°55.279 329.7 11.3 327 11.2
2010-04-30 10:50:07 51°14.298 2°55.268 329.2 11.4 327 11.6
2010-04-30 10:50:12 51°14.312 2°55.254 328.9 11.5 328 11.4
2010-04-30 10:50:17 51°14.325 2°55.241 328.9 11.6 328 10.9
2010-04-30 10:50:22 51°14.339 2°55.227 329.1 11.7 328 11.4
2010-04-30 10:50:27 51°14.353 2°55.214 329.3 11.8 329 11
2010-04-30 10:50:31 51°14.364 2°55.203 329.6 11.8 329 11
2010-04-30 10:50:37 51°14.381 2°55.187 330.3 11.9 330 -999
2010-04-30 10:50:42 51°14.396 2°55.174 330.5 12 330 11
2010-04-30 10:50:47 51°14.41 2°55.16 329.7 12.1 328 11
2010-04-30 10:50:51 51°14.422 2°55.149 329.8 12.2 329 11.2
2010-04-30 10:50:56 51°14.436 2°55.134 328.9 12.3 327 11.3
2010-04-30 10:51:01 51°14.45 2°55.118 327.1 12.5 326 11.3
2010-04-30 10:51:06 51°14.465 2°55.103 326.6 12.6 327 11
2010-04-30 10:51:11 51°14.48 2°55.087 327.1 12.8 326 11.5
2010-04-30 10:51:15 51°14.492 2°55.075 327.7 12.9 328 11.5
2010-04-30 10:51:21 51°14.509 2°55.055 327.2 13 324 11.4
2010-04-30 10:51:26 51°14.523 2°55.038 325.2 12.9 322 11.5
2010-04-30 10:51:31 51°14.537 2°55.019 322.9 13 319 11.9
2010-04-30 10:51:35 51°14.547 2°55.002 319.1 13 314 12.3
2010-04-30 10:51:41 51°14.561 2°54.976 315.3 13 311 12.3
2010-04-30 10:51:46 51°14.573 2°54.954 312 13.1 312 12.4
2010-04-30 10:51:51 51°14.586 2°54.934 314.2 13.1 316 12.5
2010-04-30 10:51:55 51°14.598 2°54.92 319.6 13.1 322 12.2
2010-04-30 10:52:01 51°14.615 2°54.899 324.7 13.1 325 12.2
2010-04-30 10:52:06 51°14.631 2°54.884 328.2 13.1 327 12.1
2010-04-30 10:52:11 51°14.646 2°54.867 329.9 13.2 326 12.3
2010-04-30 10:52:15 51°14.658 2°54.854 329.9 13.3 326 12.5
2010-04-30 10:52:20 51°14.673 2°54.837 329.5 13.3 326 12.8
2010-04-30 10:52:26 51°14.692 2°54.817 328.8 13.4 326 12.4
2010-04-30 10:52:31 51°14.708 2°54.802 329.5 13.3 328 12.2
2010-04-30 10:52:36 51°14.724 2°54.787 331.4 13.4 330 12.9
2010-04-30 10:52:41 51°14.74 2°54.773 334.2 13.3 332 12.9
2010-04-30 10:52:46 51°14.757 2°54.76 336.1 13.3 331 12.8
2010-04-30 10:52:51 51°14.772 2°54.745 334.9 13.4 330 12.3
2010-04-30 10:52:55 51°14.786 2°54.735 334.8 13.4 333 12.6
2010-04-30 10:53:01 51°14.805 2°54.716 334.1 13.4 329 12.4
2010-04-30 10:53:06 51°14.821 2°54.702 333.9 13.4 332 12.3
2010-04-30 10:53:11 51°14.837 2°54.687 333.7 13.4 330 12.9
2010-04-30 10:53:15 51°14.85 2°54.676 333.5 13.5 331 12.7
2010-04-30 10:53:21 51°14.87 2°54.659 333.5 13.5 331 12.6
2010-04-30 10:53:26 51°14.886 2°54.644 333.6 13.5 330 12.8
2010-04-30 10:53:31 51°14.903 2°54.63 333.5 13.5 331 12.8
2010-04-30 10:53:35 51°14.916 2°54.618 333.2 13.5 330 12.3
2010-04-30 10:53:41 51°14.935 2°54.6 332.8 13.4 331 12.5
2010-04-30 10:53:46 51°14.951 2°54.585 332.6 13.4 328 10.5
2010-04-30 10:53:51 51°14.967 2°54.57 332.2 13.2 330 10.6
2010-04-30 10:53:55 51°14.979 2°54.558 332.8 13 330 10.3
2010-04-30 10:54:01 51°14.998 2°54.541 332.9 13.1 330 10.1
2010-04-30 10:54:06 51°15.014 2°54.527 333 13.2 331 10.3
2010-04-30 10:54:11 51°15.029 2°54.51 331.8 13.2 326 10.2
2010-04-30 10:54:15 51°15.042 2°54.499 332 13.2 330 10
2010-04-30 10:54:21 51°15.06 2°54.479 331.1 13.2 327 10
2010-04-30 10:54:26 51°15.076 2°54.464 329.9 13.1 328 10.1
2010-04-30 10:54:31 51°15.091 2°54.448 330.2 13.1 327 10.1
2010-04-30 10:54:35 51°15.104 2°54.435 330.3 13.2 327 10
2010-04-30 10:54:41 51°15.122 2°54.416 329.7 13.2 326 9.7
2010-04-30 10:54:46 51°15.137 2°54.399 329.3 13.2 325 9.6
2010-04-30 10:54:51 51°15.152 2°54.384 329.2 13.2 327 9.8
2010-04-30 10:54:55 51°15.164 2°54.37 328.2 13.2 326 9.7
2010-04-30 10:55:01 51°15.183 2°54.351 328.8 13.2 327 9.7
2010-04-30 10:55:06 51°15.198 2°54.334 329.1 13.2 325 9.9
2010-04-30 10:55:11 51°15.213 2°54.318 329 13.3 326 9.7
2010-04-30 10:55:15 51°15.225 2°54.305 328.4 13.3 323 9.9
2010-04-30 10:55:21 51°15.243 2°54.283 326.7 13.2 325 9.8
2010-04-30 10:55:26 51°15.258 2°54.266 326.9 13.3 323 10.2
2010-04-30 10:55:31 51°15.272 2°54.248 325.4 13.3 322 9.8
2010-04-30 10:55:36 51°15.287 2°54.231 325.8 13.3 324 10.1
2010-04-30 10:55:41 51°15.301 2°54.212 325.2 13.3 321 10.2
2010-04-30 10:55:46 51°15.316 2°54.194 324.6 13.3 322 10.2
2010-04-30 10:55:51 51°15.33 2°54.175 324.2 13.3 321 10.1
2010-04-30 10:55:56 51°15.345 2°54.157 323.9 13.3 321 10.3
2010-04-30 10:56:01 51°15.359 2°54.138 323.8 13.3 320 10.2
2010-04-30 10:56:06 51°15.373 2°54.119 323.8 13.3 320 10.3
2010-04-30 10:56:11 51°15.387 2°54.1 323.6 13.3 321 10.4
2010-04-30 10:56:15 51°15.399 2°54.085 323.6 13.3 321 10.7
2010-04-30 10:56:21 51°15.416 2°54.063 324 13.3 321 10.6
2010-04-30 10:56:26 51°15.43 2°54.044 324.2 13.3 321 10.7
2010-04-30 10:56:31 51°15.445 2°54.026 324.6 13.3 321 10.7
2010-04-30 10:56:35 51°15.456 2°54.01 324 13.3 321 11
2010-04-30 10:56:41 51°15.473 2°53.989 324.4 13.3 321 11
2010-04-30 10:56:46 51°15.488 2°53.97 324.1 13.3 321 11.1
2010-04-30 10:56:51 51°15.502 2°53.952 324.4 13.3 322 11
2010-04-30 10:56:55 51°15.514 2°53.937 324.5 13.3 321 11.3
2010-04-30 10:57:01 51°15.531 2°53.915 324.3 13.3 321 11.3
2010-04-30 10:57:06 51°15.545 2°53.896 324.6 13.3 321 11.3
2010-04-30 10:57:11 51°15.56 2°53.878 324.7 13.3 321 11.2
2010-04-30 10:57:16 51°15.574 2°53.859 324.5 13.3 321 11.4
2010-04-30 10:57:21 51°15.588 2°53.841 324.4 13.3 321 11.3
2010-04-30 10:57:26 51°15.603 2°53.822 324.3 13.3 321 11.4
2010-04-30 10:57:31 51°15.617 2°53.803 324.5 13.4 320 11.6
2010-04-30 10:57:36 51°15.631 2°53.784 323.5 13.3 319 11.6
2010-04-30 10:57:41 51°15.645 2°53.764 322.3 13.4 319 11.6
2010-04-30 10:57:46 51°15.659 2°53.745 321.9 13.4 318 11.7
2010-04-30 10:57:51 51°15.672 2°53.724 320.9 13.4 317 12
2010-04-30 10:57:56 51°15.686 2°53.705 320.9 13.4 318 11.8
2010-04-30 10:58:01 51°15.699 2°53.684 320.2 13.4 316 11.9
2010-04-30 10:58:05 51°15.71 2°53.668 319.9 13.4 317 12
2010-04-30 10:58:11 51°15.726 2°53.643 319.7 13.5 316 12
2010-04-30 10:58:15 51°15.737 2°53.627 319.7 13.4 316 12.1
2010-04-30 10:58:21 51°15.753 2°53.602 319.7 13.4 316 12.3
2010-04-30 10:58:26 51°15.767 2°53.581 319.5 13.5 315 12.2
2010-04-30 10:58:31 51°15.78 2°53.561 319.5 13.4 316 12.1
2010-04-30 10:58:35 51°15.791 2°53.545 319.6 13.4 317 12.3
2010-04-30 10:58:41 51°15.807 2°53.52 319.5 13.4 317 12.3
2010-04-30 10:58:46 51°15.821 2°53.5 319.9 13.4 316 12.4
2010-04-30 10:58:51 51°15.834 2°53.479 319.8 13.4 316 12.3
2010-04-30 10:58:55 51°15.844 2°53.462 319.5 13.4 316 12.5
2010-04-30 10:59:00 51°15.858 2°53.442 319.5 13.4 316 12.3
2010-04-30 10:59:06 51°15.874 2°53.417 319.4 13.4 317 12.4
2010-04-30 10:59:11 51°15.887 2°53.397 319.9 13.4 317 12.5
2010-04-30 10:59:16 51°15.901 2°53.377 319.6 13.3 317 12.5
2010-04-30 10:59:21 51°15.915 2°53.36 322.1 13.2 322 12.6
2010-04-30 10:59:26 51°15.93 2°53.34 323.4 13.2 320 12.6
2010-04-30 10:59:31 51°15.945 2°53.324 325.1 13.2 324 12.6
2010-04-30 10:59:35 51°15.956 2°53.309 326.1 13.3 323 12.6
2010-04-30 10:59:41 51°15.974 2°53.289 327.3 13.2 325 12.7
2010-04-30 10:59:46 51°15.99 2°53.274 328.6 13.1 327 12.3
2010-04-30 10:59:51 51°16.005 2°53.258 328.9 13.1 327 12.5
2010-04-30 10:59:56 51°16.021 2°53.243 329.7 13.1 330 12.6
2010-04-30 11:00:01 51°16.036 2°53.228 331.8 13.1 329 12.7
2010-04-30 11:00:05 51°16.049 2°53.217 332.6 13.1 333 12.9
2010-04-30 11:00:11 51°16.068 2°53.2 334.1 13.1 329 12.4
2010-04-30 11:00:15 51°16.081 2°53.189 334.3 13.1 333 12.6
2010-04-30 11:00:21 51°16.1 2°53.174 334.7 13.2 333 12.8
2010-04-30 11:00:26 51°16.116 2°53.16 335.3 13.1 333 12.4
2010-04-30 11:00:31 51°16.133 2°53.148 336.1 13.2 334 12.7
2010-04-30 11:00:35 51°16.146 2°53.136 335.6 13.1 332 12.6
2010-04-30 11:00:41 51°16.166 2°53.122 336.2 13.2 334 12.8
2010-04-30 11:00:46 51°16.182 2°53.108 336.1 13.1 333 12.7
2010-04-30 11:00:51 51°16.198 2°53.096 336.4 13.1 335 12.7
2010-04-30 11:00:55 51°16.211 2°53.086 336.6 13.1 334 12.7
2010-04-30 11:01:01 51°16.231 2°53.07 336.3 13.1 335 12.9
2010-04-30 11:01:06 51°16.247 2°53.057 336.1 13.1 334 13
2010-04-30 11:01:11 51°16.264 2°53.045 336.5 13.1 335 13
2010-04-30 11:01:15 51°16.277 2°53.036 337.7 13 336 12.6
2010-04-30 11:01:21 51°16.297 2°53.022 338.8 13.1 336 12.8
2010-04-30 11:01:26 51°16.314 2°53.01 338.1 13.1 336 12.8
2010-04-30 11:01:31 51°16.331 2°52.998 338.9 13.1 337 12.8
2010-04-30 11:01:35 51°16.344 2°52.989 338.7 13.1 336 12.6
2010-04-30 11:01:41 51°16.364 2°52.976 339 13.1 339 12.9
2010-04-30 11:01:46 51°16.381 2°52.964 339.6 13.1 335 13
2010-04-30 11:01:51 51°16.398 2°52.953 339.4 13.1 340 13
2010-04-30 11:01:56 51°16.415 2°52.942 340 13.1 336 12.4
2010-04-30 11:02:01 51°16.431 2°52.931 339.9 13.2 339 12.6
2010-04-30 11:02:06 51°16.448 2°52.92 340.1 13.2 337 12.8
2010-04-30 11:02:11 51°16.465 2°52.909 339.2 13.1 338 12.5
2010-04-30 11:02:15 51°16.478 2°52.899 338.9 13.1 336 12.6
2010-04-30 11:02:21 51°16.498 2°52.886 339.3 13.1 338 12.4
2010-04-30 11:02:26 51°16.515 2°52.874 339 13.1 336 12.7
2010-04-30 11:02:31 51°16.532 2°52.863 339.1 13.2 338 12.8
2010-04-30 11:02:36 51°16.548 2°52.851 339 13.1 336 12.3
2010-04-30 11:02:41 51°16.566 2°52.841 339.4 13.1 339 12.4
2010-04-30 11:02:46 51°16.582 2°52.829 339.3 13.1 336 12.1
2010-04-30 11:02:51 51°16.599 2°52.818 339.3 13.2 338 12.4
2010-04-30 11:02:55 51°16.612 2°52.808 338.2 13.1 335 12.1
2010-04-30 11:03:01 51°16.632 2°52.796 339 13.1 338 11.9
2010-04-30 11:03:06 51°16.649 2°52.783 338.3 13.1 337 11.9
2010-04-30 11:03:11 51°16.666 2°52.773 339.2 13.1 338 12
2010-04-30 11:03:16 51°16.682 2°52.76 338.2 13.1 336 11.5
2010-04-30 11:03:21 51°16.699 2°52.749 339 13.1 337 11.4
2010-04-30 11:03:26 51°16.715 2°52.737 338.5 13.1 335 11.2
2010-04-30 11:03:31 51°16.732 2°52.726 338.3 13 337 11.3
2010-04-30 11:03:35 51°16.745 2°52.716 338.5 13 336 11
2010-04-30 11:03:41 51°16.765 2°52.702 339 12.9 337 10.9
2010-04-30 11:03:46 51°16.781 2°52.691 339 13 337 10.7
2010-04-30 11:03:51 51°16.798 2°52.679 338.9 13 336 10.6
2010-04-30 11:03:56 51°16.814 2°52.668 339.3 13 337 10.5
2010-04-30 11:04:01 51°16.831 2°52.656 338.4 13 336 10.5
2010-04-30 11:04:05 51°16.844 2°52.646 338.6 13 335 10.3
2010-04-30 11:04:11 51°16.864 2°52.632 338.9 13 336 10.6
2010-04-30 11:04:15 51°16.877 2°52.622 338 13 335 10.5
2010-04-30 11:04:21 51°16.896 2°52.608 338.6 13 335 10.6
2010-04-30 11:04:26 51°16.913 2°52.596 338.2 13 335 10.8
2010-04-30 11:04:31 51°16.929 2°52.584 339 13.1 336 10.9
2010-04-30 11:04:36 51°16.946 2°52.572 338.5 13.1 335 10.9
2010-04-30 11:04:41 51°16.962 2°52.56 338.7 13.1 336 10.8
2010-04-30 11:04:46 51°16.979 2°52.548 338.8 13.1 335 10.4
2010-04-30 11:04:51 51°16.996 2°52.537 338.9 13.1 338 10.5
2010-04-30 11:04:56 51°17.012 2°52.524 339.3 13 335 10.4
2010-04-30 11:05:01 51°17.029 2°52.514 339.8 13 338 10.5
2010-04-30 11:05:06 51°17.045 2°52.502 339.4 13 334 10.4
2010-04-30 11:05:11 51°17.061 2°52.49 338.3 13 336 10.6
2010-04-30 11:05:15 51°17.074 2°52.48 338.4 13 335 10.9
2010-04-30 11:05:21 51°17.094 2°52.466 338.3 13 335 10.7
2010-04-30 11:05:26 51°17.111 2°52.454 339 13 335 10.7
2010-04-30 11:05:31 51°17.127 2°52.442 338.4 13.1 335 10.3
2010-04-30 11:05:35 51°17.14 2°52.432 338.6 13.1 335 10.6
2010-04-30 11:05:41 51°17.16 2°52.418 338.4 13.1 337 11
2010-04-30 11:05:46 51°17.177 2°52.406 338.7 13.1 335 10.8
2010-04-30 11:05:51 51°17.193 2°52.395 339 13.1 337 11.4
2010-04-30 11:05:56 51°17.21 2°52.382 338.6 13.1 335 10.5
2010-04-30 11:06:01 51°17.226 2°52.371 339 13.1 335 10.9
2010-04-30 11:06:06 51°17.243 2°52.358 338 13.1 336 10.9
2010-04-30 11:06:11 51°17.259 2°52.346 338.5 13 335 11.3
2010-04-30 11:06:15 51°17.272 2°52.336 338.6 13.1 336 11.2
2010-04-30 11:06:21 51°17.292 2°52.321 338.5 13.2 334 11.3
2010-04-30 11:06:26 51°17.309 2°52.309 338.1 13.2 335 11.2
2010-04-30 11:06:31 51°17.325 2°52.297 337.8 13.1 335 11.2
2010-04-30 11:06:35 51°17.338 2°52.287 337.6 13.1 334 11.5
2010-04-30 11:06:41 51°17.358 2°52.272 338.1 13.1 335 11.5
2010-04-30 11:06:46 51°17.374 2°52.26 337.9 13.1 335 11.8
2010-04-30 11:06:51 51°17.391 2°52.247 338.3 13.2 335 11.9
2010-04-30 11:06:56 51°17.407 2°52.235 338.3 13.2 335 11.7
2010-04-30 11:07:01 51°17.424 2°52.223 337.9 13.2 336 12.3
2010-04-30 11:07:06 51°17.441 2°52.211 338 13.1 336 12.3
2010-04-30 11:07:11 51°17.457 2°52.198 338.4 13.1 334 12.4
2010-04-30 11:07:16 51°17.473 2°52.185 338.1 13.1 335 12.3
2010-04-30 11:07:21 51°17.489 2°52.171 336.5 13.2 329 12.2
2010-04-30 11:07:26 51°17.505 2°52.157 335 13.2 331 12.3
2010-04-30 11:07:31 51°17.521 2°52.142 333.6 13.1 329 12.2
2010-04-30 11:07:35 51°17.533 2°52.129 332.5 13.1 328 12.3
2010-04-30 11:07:41 51°17.552 2°52.111 331.9 13.1 328 12.1
2010-04-30 11:07:46 51°17.567 2°52.095 331 13.1 326 12.2
2010-04-30 11:07:51 51°17.582 2°52.08 331.1 13.1 328 12.3
2010-04-30 11:07:55 51°17.594 2°52.066 330.1 13.1 325 12.2
2010-04-30 11:08:01 51°17.612 2°52.047 330.2 13.1 327 11.8
2010-04-30 11:08:06 51°17.627 2°52.031 330.1 13.1 325 11.9
2010-04-30 11:08:11 51°17.642 2°52.015 329.8 13 326 11.5
2010-04-30 11:08:15 51°17.655 2°52.002 330 13.1 326 11.8
2010-04-30 11:08:21 51°17.673 2°51.983 329.8 13 327 11.5
2010-04-30 11:08:26 51°17.688 2°51.967 329.9 13 326 11.2
2010-04-30 11:08:31 51°17.703 2°51.951 329.8 13 326 11
2010-04-30 11:08:36 51°17.718 2°51.934 329.7 13 325 11
2010-04-30 11:08:41 51°17.733 2°51.919 329.7 13.1 327 11.4
2010-04-30 11:08:46 51°17.748 2°51.902 329.6 13 325 10.9
2010-04-30 11:08:51 51°17.763 2°51.886 329.5 13.1 326 11.4
2010-04-30 11:08:55 51°17.775 2°51.873 329.7 13.1 326 10.7
2010-04-30 11:09:01 51°17.793 2°51.854 329.9 13.1 326 11.4
2010-04-30 11:09:05 51°17.805 2°51.841 329.7 13 327 11.1
2010-04-30 11:09:11 51°17.823 2°51.822 330.1 13 326 10.9
2010-04-30 11:09:15 51°17.835 2°51.809 330.4 13 327 11.2
2010-04-30 11:09:21 51°17.853 2°51.79 330.3 13.1 326 11.1
2010-04-30 11:09:26 51°17.868 2°51.774 330.1 13.1 326 11.2
2010-04-30 11:09:31 51°17.884 2°51.759 329.7 13 328 10.8
2010-04-30 11:09:36 51°17.899 2°51.743 329.8 13.1 328 11.2
2010-04-30 11:09:41 51°17.913 2°51.726 328.8 13 326 11
2010-04-30 11:09:46 51°17.929 2°51.711 331 13.1 328 11.5
2010-04-30 11:09:51 51°17.943 2°51.694 329.4 13 323 11.4
2010-04-30 11:09:55 51°17.955 2°51.68 327.6 13 324 11.7
2010-04-30 11:10:01 51°17.973 2°51.659 327.9 13.1 323 11.4
2010-04-30 11:10:06 51°17.987 2°51.641 326.6 13.2 322 11.9
2010-04-30 11:10:11 51°18.002 2°51.624 326 13.1 324 11.5
2010-04-30 11:10:15 51°18.013 2°51.609 325.6 13.2 321 11.8
2010-04-30 11:10:21 51°18.03 2°51.588 325.1 13.1 322 11.6
2010-04-30 11:10:26 51°18.044 2°51.57 325.7 13.2 320 12.1
2010-04-30 11:10:31 51°18.059 2°51.552 325.2 13.2 323 11.9
2010-04-30 11:10:35 51°18.07 2°51.537 325.2 13.2 321 11.6
2010-04-30 11:10:41 51°18.087 2°51.515 324.8 13.1 321 12.3
2010-04-30 11:10:46 51°18.102 2°51.498 324.6 13.1 323 12.3
2010-04-30 11:10:51 51°18.115 2°51.479 324.7 13.1 319 12.4
2010-04-30 11:10:55 51°18.127 2°51.465 324.3 13.1 321 12.2
2010-04-30 11:11:01 51°18.144 2°51.442 324.8 13.2 319 12.3
2010-04-30 11:11:05 51°18.155 2°51.427 323.8 13.1 321 12.8
2010-04-30 11:11:11 51°18.172 2°51.406 324.2 13.1 321 13
2010-04-30 11:11:16 51°18.186 2°51.387 324.1 13.1 320 13.3
2010-04-30 11:11:21 51°18.2 2°51.369 324.6 13.2 320 12.9
2010-04-30 11:11:26 51°18.214 2°51.35 323.8 13.2 320 13.2
2010-04-30 11:11:31 51°18.229 2°51.333 324.4 13.1 323 13.6
2010-04-30 11:11:35 51°18.239 2°51.317 323.4 13.1 319 13.4
2010-04-30 11:11:41 51°18.257 2°51.296 325.2 13 323 13.3
2010-04-30 11:11:46 51°18.269 2°51.279 324.5 12.1 319 13.8
2010-04-30 11:11:51 51°18.282 2°51.263 323.3 11.2 320 13.7
2010-04-30 11:11:55 51°18.29 2°51.251 323.8 10.5 319 13.8
2010-04-30 11:12:01 51°18.303 2°51.233 323.2 9.7 318 14.1
2010-04-30 11:12:06 51°18.312 2°51.22 322.5 9.2 319 14.1
2010-04-30 11:12:11 51°18.321 2°51.207 322.7 8.8 319 14.6
2010-04-30 11:12:15 51°18.328 2°51.197 323.1 8.3 320 14.3
2010-04-30 11:12:21 51°18.338 2°51.183 323.2 7.8 319 14.5
2010-04-30 11:12:26 51°18.346 2°51.172 323.2 7.3 319 14.3
2010-04-30 11:12:31 51°18.353 2°51.162 323.1 7.1 318 14.3
2010-04-30 11:12:35 51°18.359 2°51.154 323 6.7 319 14.3
2010-04-30 11:12:41 51°18.367 2°51.143 323 6.4 317 14.5
2010-04-30 11:12:45 51°18.372 2°51.135 322.8 6.1 319 14.6
2010-04-30 11:12:51 51°18.379 2°51.125 322.7 5.9 318 14.9
2010-04-30 11:12:55 51°18.384 2°51.119 322.4 5.6 321 14.4
2010-04-30 11:13:01 51°18.391 2°51.109 323.3 5.4 319 14.6
2010-04-30 11:13:05 51°18.395 2°51.104 323.6 5.2 320 14.7
2010-04-30 11:13:11 51°18.402 2°51.095 323.8 4.9 321 14.2
2010-04-30 11:13:15 51°18.406 2°51.09 324.2 4.7 321 14.5
2010-04-30 11:13:21 51°18.412 2°51.082 324.1 4.6 322 15.1
2010-04-30 11:13:26 51°18.416 2°51.075 323.2 4.4 319 14.9
2010-04-30 11:13:31 51°18.421 2°51.07 323.1 4.2 320 14.4
2010-04-30 11:13:36 51°18.425 2°51.064 323.6 4 319 14.6
2010-04-30 11:13:41 51°18.429 2°51.059 323.7 3.7 321 14.9
2010-04-30 11:13:46 51°18.432 2°51.053 323.5 3.5 318 15
2010-04-30 11:13:51 51°18.436 2°51.048 323 3.4 319 15.1
2010-04-30 11:13:55 51°18.439 2°51.045 322.1 3.2 317 14.7
2010-04-30 11:14:01 51°18.442 2°51.039 321.4 3 317 14.5
2010-04-30 11:14:06 51°18.445 2°51.035 321 2.9 318 15
2010-04-30 11:14:11 51°18.448 2°51.031 320.9 2.7 316 15
2010-04-30 11:14:15 51°18.45 2°51.028 320.7 2.5 317 14.6
2010-04-30 11:14:21 51°18.453 2°51.024 321.8 2.4 315 14.8
2010-04-30 11:14:26 51°18.455 2°51.02 321.6 2.1 316 14.6
2010-04-30 11:14:31 51°18.457 2°51.017 321.6 2 316 14.8
2010-04-30 11:14:35 51°18.458 2°51.015 321.4 1.8 316 15.3
2010-04-30 11:14:41 51°18.46 2°51.012 320.7 1.4 317 14.7
2010-04-30 11:14:46 51°18.462 2°51.01 320.2 1 315 14.6
2010-04-30 11:14:51 51°18.462 2°51.009 320.5 0.9 314 14.8
2010-04-30 11:14:55 51°18.463 2°51.008 320.1 0.7 304 14.6
2010-04-30 11:15:01 51°18.464 2°51.007 319.7 0.6 310 14.6
2010-04-30 11:15:06 51°18.464 2°51.006 319.9 0.6 297 14.9
2010-04-30 11:15:11 51°18.464 2°51.005 320 0.5 300 14.9
2010-04-30 11:15:15 51°18.465 2°51.005 319.4 0.4 302 14.9
2010-04-30 11:15:21 51°18.465 2°51.004 318.7 0.4 295 15.1
2010-04-30 11:15:26 51°18.466 2°51.003 318.3 0.3 309 15.3
2010-04-30 11:15:31 51°18.466 2°51.002 317 0.4 294 15.3
2010-04-30 11:15:36 51°18.466 2°51.002 316.3 0.3 300 14.9
2010-04-30 11:15:41 51°18.466 2°51.001 315.8 0.4 282 15.1
2010-04-30 11:15:46 51°18.467 2°51.001 315.5 0.2 321 15.3
2010-04-30 11:15:51 51°18.467 2°51 314.8 0.2 299 15.4
2010-04-30 11:15:55 51°18.467 2°51 314 0.2 325 15
2010-04-30 11:16:01 51°18.467 2°51 313.7 0.2 315 14.9
2010-04-30 11:16:06 51°18.467 2°51 313.5 0.1 290 15
2010-04-30 11:16:11 51°18.467 2°50.999 313.5 0.1 339 14.8
2010-04-30 11:16:15 51°18.467 2°50.999 313.6 -999 236 15.1
2010-04-30 11:16:21 51°18.467 2°51 313.3 0.1 40 15.3
2010-04-30 11:16:26 51°18.467 2°51 313.2 -999 168 15.2
2010-04-30 11:16:31 51°18.467 2°51 313.1 0.1 61 15.1
2010-04-30 11:16:35 51°18.467 2°51 313.1 0.1 16 15.3
2010-04-30 11:16:41 51°18.468 2°51 313 0.1 102 15
2010-04-30 11:16:46 51°18.468 2°51 313 0.1 71 15
2010-04-30 11:16:51 51°18.467 2°51.001 313.3 0.2 120 14.8
2010-04-30 11:16:55 51°18.468 2°51.001 313.1 0.3 119 14.6
2010-04-30 11:17:01 51°18.467 2°51.002 314.1 0.3 139 15
2010-04-30 11:17:06 51°18.467 2°51.003 314.3 0.4 114 14.9
2010-04-30 11:17:11 51°18.467 2°51.003 314.8 0.4 130 15.1
2010-04-30 11:17:15 51°18.467 2°51.004 314.7 0.4 115 15.3
2010-04-30 11:17:21 51°18.466 2°51.005 314.8 0.4 112 15.3
2010-04-30 11:17:26 51°18.466 2°51.006 315.2 0.4 119 15.1
2010-04-30 11:17:31 51°18.466 2°51.006 315.8 0.4 116 14.9
2010-04-30 11:17:35 51°18.466 2°51.007 316.4 0.4 109 14.7
2010-04-30 11:17:41 51°18.465 2°51.008 317.8 0.5 116 15
2010-04-30 11:17:46 51°18.465 2°51.009 318.5 0.5 106 15.1
2010-04-30 11:17:51 51°18.465 2°51.01 319.7 0.4 113 15.1
2010-04-30 11:17:55 51°18.465 2°51.012 320.3 0.6 98 14.7
2010-04-30 11:18:01 51°18.464 2°51.013 321.3 0.6 118 14.9
2010-04-30 11:18:05 51°18.464 2°51.014 322.7 0.7 111 14.8
2010-04-30 11:18:11 51°18.463 2°51.016 323.9 0.6 114 15.1
2010-04-30 11:18:15 51°18.463 2°51.017 325.9 0.7 110 14.8
2010-04-30 11:18:21 51°18.463 2°51.018 326.8 0.7 118 14.8
2010-04-30 11:18:26 51°18.462 2°51.02 329 0.8 122 15
2010-04-30 11:18:31 51°18.462 2°51.021 331.4 0.7 125 14.8
2010-04-30 11:18:35 51°18.461 2°51.023 332.6 0.7 126 14.8
2010-04-30 11:18:41 51°18.46 2°51.024 334.8 0.9 122 15.1
2010-04-30 11:18:46 51°18.46 2°51.026 336.2 0.7 129 15.2
2010-04-30 11:18:51 51°18.459 2°51.027 338 0.8 122 15.1
2010-04-30 11:18:55 51°18.459 2°51.029 339.2 0.7 129 15.1
2010-04-30 11:19:01 51°18.458 2°51.03 340.4 0.7 128 15
2010-04-30 11:19:06 51°18.457 2°51.032 341.2 0.8 124 14.9
2010-04-30 11:19:11 51°18.457 2°51.033 342.8 0.8 127 15.2
2010-04-30 11:19:15 51°18.456 2°51.035 343.7 0.8 121 15.3
2010-04-30 11:19:21 51°18.456 2°51.036 344.6 0.8 122 15.3
2010-04-30 11:19:26 51°18.455 2°51.038 345.6 0.8 127 15.1
2010-04-30 11:19:31 51°18.454 2°51.039 346.5 0.9 124 15.1
2010-04-30 11:19:35 51°18.454 2°51.04 347.5 0.9 128 15.4
2010-04-30 11:19:41 51°18.453 2°51.043 348.5 1 120 15.4
2010-04-30 11:19:46 51°18.452 2°51.044 349.7 0.8 131 15.3
2010-04-30 11:19:51 51°18.451 2°51.045 350.3 0.9 129 15.1
2010-04-30 11:19:55 51°18.451 2°51.047 351.4 0.9 123 15.2
2010-04-30 11:20:01 51°18.45 2°51.048 351.6 0.8 119 15.2
2010-04-30 11:20:05 51°18.45 2°51.05 351.9 0.9 115 15.1
2010-04-30 11:20:11 51°18.449 2°51.051 352.1 0.8 126 15
2010-04-30 11:20:15 51°18.448 2°51.053 352.8 0.9 125 15
2010-04-30 11:20:21 51°18.448 2°51.054 353.1 0.7 131 15
2010-04-30 11:20:26 51°18.447 2°51.056 353.1 0.7 126 14.9
2010-04-30 11:20:31 51°18.446 2°51.057 353.3 0.8 126 14.9
2010-04-30 11:20:36 51°18.446 2°51.059 353.1 0.7 126 14.8
2010-04-30 11:20:41 51°18.445 2°51.061 353.3 0.9 125 14.9
2010-04-30 11:20:46 51°18.444 2°51.062 353.6 0.8 127 15.1
2010-04-30 11:20:51 51°18.444 2°51.063 354.3 0.8 122 15.2
2010-04-30 11:20:55 51°18.443 2°51.065 354.3 0.8 125 15.2
2010-04-30 11:21:01 51°18.443 2°51.066 354.6 0.7 126 14.8
2010-04-30 11:21:06 51°18.442 2°51.068 354.9 0.8 119 14.8
2010-04-30 11:21:11 51°18.441 2°51.07 355.4 0.8 122 14.9
2010-04-30 11:21:15 51°18.441 2°51.071 356 0.9 120 15.4
2010-04-30 11:21:21 51°18.44 2°51.073 356.3 0.9 124 15.4
2010-04-30 11:21:26 51°18.439 2°51.074 356.6 0.8 123 15.2
2010-04-30 11:21:31 51°18.439 2°51.075 356.8 0.8 122 15
2010-04-30 11:21:35 51°18.439 2°51.076 356.5 0.7 119 15.3
2010-04-30 11:21:41 51°18.438 2°51.078 355.8 0.7 113 15.1
2010-04-30 11:21:46 51°18.438 2°51.08 355.2 0.8 113 15.2
2010-04-30 11:21:51 51°18.437 2°51.081 354.5 0.6 121 15.2
2010-04-30 11:21:55 51°18.437 2°51.082 354 0.7 112 15.1
2010-04-30 11:22:01 51°18.437 2°51.084 353.2 0.5 122 14.8
2010-04-30 11:22:05 51°18.436 2°51.085 352.8 0.7 115 14.6
2010-04-30 11:22:11 51°18.436 2°51.087 352.2 0.8 115 14.8
2010-04-30 11:22:15 51°18.436 2°51.088 352.6 0.7 121 15
2010-04-30 11:22:21 51°18.435 2°51.09 352.2 0.7 122 14.9
2010-04-30 11:22:26 51°18.435 2°51.092 351.7 0.6 123 14.9
2010-04-30 11:22:31 51°18.434 2°51.093 350.8 0.8 115 14.9
2010-04-30 11:22:36 51°18.434 2°51.095 350.2 0.7 116 15.1
2010-04-30 11:22:41 51°18.434 2°51.096 349.7 0.7 114 15
2010-04-30 11:22:46 51°18.433 2°51.098 349.2 0.6 115 15
2010-04-30 11:22:51 51°18.433 2°51.099 348.6 0.6 121 14.7
2010-04-30 11:22:55 51°18.432 2°51.1 348 0.7 113 14.6
2010-04-30 11:23:01 51°18.432 2°51.102 347.3 0.6 118 14.9
2010-04-30 11:23:06 51°18.431 2°51.103 347.2 0.7 115 15
2010-04-30 11:23:11 51°18.431 2°51.104 346.9 0.7 119 15.1
2010-04-30 11:23:15 51°18.431 2°51.105 346.5 0.7 118 15.1
2010-04-30 11:23:21 51°18.43 2°51.107 346.3 0.7 121 14.9
2010-04-30 11:23:26 51°18.43 2°51.108 345.9 0.7 114 15.2
2010-04-30 11:23:31 51°18.429 2°51.11 345.4 0.8 116 15.4
2010-04-30 11:23:35 51°18.429 2°51.111 344.9 0.7 116 15.1
2010-04-30 11:23:40 51°18.429 2°51.113 344.1 0.7 113 15
2010-04-30 11:23:46 51°18.428 2°51.114 343.3 0.6 111 15.1
2010-04-30 11:23:51 51°18.428 2°51.116 342.8 0.7 112 15.1
2010-04-30 11:23:55 51°18.428 2°51.117 342.6 0.7 118 15
2010-04-30 11:24:01 51°18.427 2°51.118 342.3 0.7 113 14.9
2010-04-30 11:24:06 51°18.427 2°51.12 342.1 0.7 111 14.6
2010-04-30 11:24:11 51°18.426 2°51.122 341.9 0.9 101 14.6
2010-04-30 11:24:15 51°18.426 2°51.123 342.6 0.8 104 15.1
2010-04-30 11:24:21 51°18.426 2°51.125 342.9 0.9 104 15.3
2010-04-30 11:24:26 51°18.425 2°51.127 342.9 0.8 104 15.3
2010-04-30 11:24:31 51°18.425 2°51.128 343.3 0.8 106 15.1
2010-04-30 11:24:36 51°18.425 2°51.13 343.3 0.8 102 14.9
2010-04-30 11:24:41 51°18.425 2°51.132 343.6 0.8 101 14.9
2010-04-30 11:24:46 51°18.424 2°51.134 343.8 0.8 102 15
2010-04-30 11:24:51 51°18.424 2°51.135 344 0.8 102 15.2
2010-04-30 11:24:55 51°18.424 2°51.137 343.4 0.7 105 15.2
2010-04-30 11:25:01 51°18.424 2°51.138 342.8 0.7 98 14.8
2010-04-30 11:25:05 51°18.424 2°51.139 342.6 0.7 103 14.8
2010-04-30 11:25:11 51°18.423 2°51.141 342.4 0.7 104 15
2010-04-30 11:25:15 51°18.423 2°51.143 342.4 0.7 102 15
2010-04-30 11:25:21 51°18.423 2°51.145 341.9 0.7 95 15
2010-04-30 11:25:26 51°18.423 2°51.147 341.8 0.8 97 15.2
2010-04-30 11:25:31 51°18.423 2°51.148 341.5 0.7 103 15.1
2010-04-30 11:25:35 51°18.423 2°51.149 341.2 0.7 100 15
2010-04-30 11:25:41 51°18.422 2°51.151 341.1 0.7 104 15.1
2010-04-30 11:25:46 51°18.422 2°51.153 341.1 0.6 110 15.1
2010-04-30 11:25:51 51°18.422 2°51.154 340.9 0.8 98 15.3
2010-04-30 11:25:55 51°18.422 2°51.155 340.6 0.7 102 15.1
2010-04-30 11:26:01 51°18.421 2°51.157 340.5 0.8 104 15
2010-04-30 11:26:06 51°18.421 2°51.159 340.5 0.8 102 15
2010-04-30 11:26:11 51°18.421 2°51.16 340.5 0.7 107 15
2010-04-30 11:26:15 51°18.421 2°51.162 340.5 0.8 98 14.8
2010-04-30 11:26:21 51°18.42 2°51.164 340.6 0.6 103 14.9
2010-04-30 11:26:26 51°18.42 2°51.165 340.6 0.8 106 14.7
2010-04-30 11:26:31 51°18.42 2°51.167 340.8 0.8 104 14.6
2010-04-30 11:26:35 51°18.42 2°51.169 341.1 0.9 104 15
2010-04-30 11:26:41 51°18.42 2°51.171 341.2 0.8 103 15.2
2010-04-30 11:26:46 51°18.419 2°51.173 341.2 0.8 103 15.1
2010-04-30 11:26:51 51°18.419 2°51.174 341.2 0.9 100 15.3
2010-04-30 11:26:55 51°18.419 2°51.176 341.3 0.8 97 15
2010-04-30 11:27:01 51°18.419 2°51.178 341.4 0.8 103 14.9
2010-04-30 11:27:06 51°18.419 2°51.18 341.5 0.8 97 14.5
2010-04-30 11:27:11 51°18.418 2°51.182 341.9 0.9 102 14.6
2010-04-30 11:27:15 51°18.418 2°51.183 343 0.9 99 14.9
2010-04-30 11:27:21 51°18.418 2°51.186 343.5 0.9 101 15
2010-04-30 11:27:26 51°18.417 2°51.188 344 0.8 100 15.1
2010-04-30 11:27:31 51°18.417 2°51.19 344.3 0.9 96 15
2010-04-30 11:27:35 51°18.417 2°51.191 344.5 0.9 102 15.1
2010-04-30 11:27:41 51°18.417 2°51.193 344.8 0.9 100 15.2
2010-04-30 11:27:46 51°18.417 2°51.195 344.5 0.9 97 14.9
2010-04-30 11:27:51 51°18.417 2°51.197 344.4 0.9 104 14.9
2010-04-30 11:27:55 51°18.416 2°51.198 344.5 0.8 105 15.3
2010-04-30 11:28:01 51°18.416 2°51.2 344.4 0.9 98 15.1
2010-04-30 11:28:06 51°18.416 2°51.202 344.4 0.8 105 14.8
2010-04-30 11:28:11 51°18.416 2°51.204 345.1 0.9 104 14.8
2010-04-30 11:28:15 51°18.415 2°51.206 345.9 0.8 105 15
2010-04-30 11:28:21 51°18.415 2°51.208 345.9 0.8 101 15
2010-04-30 11:28:26 51°18.415 2°51.21 345.8 0.8 109 14.9
2010-04-30 11:28:31 51°18.415 2°51.212 346.1 0.9 100 15.1
2010-04-30 11:28:35 51°18.414 2°51.213 346 0.9 100 15
2010-04-30 11:28:41 51°18.414 2°51.216 346 1 100 15
2010-04-30 11:28:46 51°18.414 2°51.217 346 0.8 109 15.1
2010-04-30 11:28:51 51°18.413 2°51.219 345.6 1 97 15.1
2010-04-30 11:28:55 51°18.413 2°51.221 345.3 0.9 100 14.8
2010-04-30 11:29:01 51°18.413 2°51.223 345.7 0.9 103 14.8
2010-04-30 11:29:05 51°18.413 2°51.224 345.7 0.9 107 14.9
2010-04-30 11:29:11 51°18.412 2°51.227 345.3 1 106 14.8
2010-04-30 11:29:15 51°18.412 2°51.229 344.8 0.9 106 15.1
2010-04-30 11:29:21 51°18.412 2°51.231 344.1 1 98 14.9
2010-04-30 11:29:26 51°18.412 2°51.233 343.9 0.9 100 14.8
2010-04-30 11:29:31 51°18.411 2°51.235 344.2 1 101 15.1
2010-04-30 11:29:36 51°18.411 2°51.237 344.2 1.1 95 15.1
2010-04-30 11:29:41 51°18.411 2°51.239 343.4 0.7 81 15
2010-04-30 11:29:46 51°18.412 2°51.241 343.5 1 75 15.3
2010-04-30 11:29:51 51°18.412 2°51.242 344 0.8 65 15
2010-04-30 11:29:55 51°18.412 2°51.244 345.3 0.9 63 14.7
2010-04-30 11:30:01 51°18.413 2°51.246 346.7 0.9 51 14.7
2010-04-30 11:30:06 51°18.414 2°51.247 348 1.1 41 14.8
2010-04-30 11:30:11 51°18.416 2°51.249 349.4 1.2 28 14.8
2010-04-30 11:30:15 51°18.417 2°51.249 349.8 1.3 19 14.8
2010-04-30 11:30:21 51°18.42 2°51.251 351.4 1.5 14 14.7
2010-04-30 11:30:26 51°18.422 2°51.251 352.2 1.8 11 14.9
2010-04-30 11:30:31 51°18.425 2°51.252 352.9 2.1 8 15.1
2010-04-30 11:30:35 51°18.427 2°51.252 353.4 2.4 5 15.1
2010-04-30 11:30:41 51°18.432 2°51.253 354.4 2.7 5 14.8
2010-04-30 11:30:46 51°18.436 2°51.254 356.1 3 6 14.9
2010-04-30 11:30:51 51°18.44 2°51.255 358.6 3.2 9 15
2010-04-30 11:30:55 51°18.444 2°51.256 1.5 3.4 9 15.2
2010-04-30 11:31:01 51°18.45 2°51.259 5.7 3.6 16 15.2
2010-04-30 11:31:05 51°18.453 2°51.261 9 3.9 18 15.1
2010-04-30 11:31:11 51°18.46 2°51.265 14.6 4.1 23 15.1
2010-04-30 11:31:15 51°18.464 2°51.269 20.5 4.3 32 15.1
2010-04-30 11:31:21 51°18.47 2°51.276 26.9 4.5 38 15.1
2010-04-30 11:31:26 51°18.475 2°51.283 32 4.6 44 15.1
2010-04-30 11:31:31 51°18.479 2°51.291 40.7 4.7 50 15.1
2010-04-30 11:31:35 51°18.482 2°51.299 47.8 4.8 59 15.1
2010-04-30 11:31:41 51°18.485 2°51.31 55.4 5 68 15.2
2010-04-30 11:31:46 51°18.487 2°51.321 61.6 5 75 15.1
2010-04-30 11:31:51 51°18.488 2°51.332 70.2 5.2 80 15.1
2010-04-30 11:31:55 51°18.489 2°51.342 76 5.3 87 15
2010-04-30 11:32:01 51°18.488 2°51.356 85 5.3 94 15.2
2010-04-30 11:32:06 51°18.487 2°51.368 92.4 5.4 99 15.1
2010-04-30 11:32:11 51°18.484 2°51.379 99.5 5.4 109 15
2010-04-30 11:32:15 51°18.482 2°51.388 106.8 5.4 113 15
2010-04-30 11:32:21 51°18.478 2°51.401 114.4 5.4 119 15.3
2010-04-30 11:32:26 51°18.473 2°51.411 119.9 5.4 125 15
2010-04-30 11:32:31 51°18.468 2°51.419 128.4 5.4 134 14.9
2010-04-30 11:32:35 51°18.463 2°51.426 135.3 5.5 139 14.9
2010-04-30 11:32:40 51°18.457 2°51.433 142.1 5.3 146 14.5
2010-04-30 11:32:46 51°18.45 2°51.44 148.1 5.3 152 14.9
2010-04-30 11:32:51 51°18.443 2°51.445 155.8 5.3 156 14.9
2010-04-30 11:32:55 51°18.437 2°51.447 161.7 5.2 163 14.6
2010-04-30 11:33:01 51°18.429 2°51.451 168.2 5.2 165 15.1
2010-04-30 11:33:06 51°18.422 2°51.453 174.9 5.3 171 15.2
2010-04-30 11:33:11 51°18.415 2°51.455 178.6 5.4 172 14.7
2010-04-30 11:33:15 51°18.408 2°51.455 180.8 5.4 175 14.3
2010-04-30 11:33:21 51°18.4 2°51.456 182.5 5.5 177 14.6
2010-04-30 11:33:26 51°18.392 2°51.457 183.7 5.7 177 14.8
2010-04-30 11:33:31 51°18.384 2°51.457 184.4 5.8 177 14.6
2010-04-30 11:33:35 51°18.377 2°51.458 184.1 6 176 14.3
2010-04-30 11:33:41 51°18.368 2°51.46 182.9 6 174 14.6
2010-04-30 11:33:46 51°18.359 2°51.461 181.5 6.1 174 14.7
2010-04-30 11:33:51 51°18.35 2°51.464 179.5 6.3 169 14.3
2010-04-30 11:33:55 51°18.343 2°51.466 177 6.4 170 14.6
2010-04-30 11:34:01 51°18.333 2°51.469 176.1 6.5 168 14.6
2010-04-30 11:34:06 51°18.324 2°51.472 175.5 6.6 168 14.2
2010-04-30 11:34:11 51°18.315 2°51.475 173.6 6.7 168 14.1
2010-04-30 11:34:15 51°18.307 2°51.478 171.3 6.7 164 13.9
2010-04-30 11:34:21 51°18.297 2°51.484 168.7 6.7 162 14.1
2010-04-30 11:34:26 51°18.288 2°51.489 166.3 6.9 158 14.3
2010-04-30 11:34:31 51°18.279 2°51.495 163.5 7.1 159 14.1
2010-04-30 11:34:35 51°18.271 2°51.499 163.7 7 162 13.6
2010-04-30 11:34:41 51°18.26 2°51.504 165.6 6.9 161 13.7
2010-04-30 11:34:46 51°18.251 2°51.509 166.7 7 161 14.1
2010-04-30 11:34:51 51°18.242 2°51.514 166.9 7 161 14.1
2010-04-30 11:34:55 51°18.234 2°51.519 165.9 7.1 160 13.7
2010-04-30 11:35:01 51°18.223 2°51.525 165.3 7.2 160 13.6
2010-04-30 11:35:06 51°18.214 2°51.531 164.9 7.1 158 13.6
2010-04-30 11:35:11 51°18.204 2°51.537 164.2 7.1 158 13.9
2010-04-30 11:35:15 51°18.197 2°51.541 163.5 7.3 157 13.7
2010-04-30 11:35:21 51°18.186 2°51.548 163.4 7.2 159 13.5
2010-04-30 11:35:26 51°18.177 2°51.555 163.4 7.2 156 13.9
2010-04-30 11:35:31 51°18.167 2°51.561 163.7 7.2 156 13.5
2010-04-30 11:35:35 51°18.16 2°51.566 163.1 7.2 158 13.2
2010-04-30 11:35:41 51°18.149 2°51.573 162.7 7.3 157 13.5
2010-04-30 11:35:46 51°18.14 2°51.579 163.2 7.2 158 12.8
2010-04-30 11:35:51 51°18.13 2°51.585 163.4 7.2 158 13.2
2010-04-30 11:35:55 51°18.123 2°51.59 163.6 7.2 160 13.3
2010-04-30 11:36:01 51°18.111 2°51.597 164.8 7.2 159 13.1
2010-04-30 11:36:05 51°18.104 2°51.601 165.7 7.2 160 13.4
2010-04-30 11:36:11 51°18.093 2°51.607 166.5 7.2 161 13.2
2010-04-30 11:36:15 51°18.085 2°51.611 167.3 7.1 161 12.8
2010-04-30 11:36:21 51°18.074 2°51.617 168.3 7.2 162 13.2
2010-04-30 11:36:26 51°18.064 2°51.622 168.6 7.1 162 13
2010-04-30 11:36:31 51°18.055 2°51.627 168.9 7.1 161 12.9
2010-04-30 11:36:36 51°18.045 2°51.632 168.5 7.2 164 13
2010-04-30 11:36:41 51°18.036 2°51.636 168.3 7.1 164 12.8
2010-04-30 11:36:46 51°18.027 2°51.64 169.9 6.9 166 13.1
2010-04-30 11:36:51 51°18.018 2°51.64 177.1 6.5 175 13.1
2010-04-30 11:36:55 51°18.011 2°51.641 182.7 6.3 179 12.8
2010-04-30 11:37:01 51°18 2°51.639 189.3 5.9 188 12.6
2010-04-30 11:37:06 51°17.993 2°51.636 196.4 5.5 191 12.6
2010-04-30 11:37:11 51°17.986 2°51.633 204.1 5.3 199 12.6
2010-04-30 11:37:15 51°17.981 2°51.629 209.8 5 205 12.8
2010-04-30 11:37:21 51°17.974 2°51.622 216.6 4.8 211 12.7
2010-04-30 11:37:26 51°17.969 2°51.616 223.1 4.4 220 12.4
2010-04-30 11:37:31 51°17.965 2°51.609 229.9 4.3 223 12.7
2010-04-30 11:37:35 51°17.962 2°51.604 236 4.2 232 12.7
2010-04-30 11:37:41 51°17.958 2°51.594 243 4 240 12.4
2010-04-30 11:37:46 51°17.957 2°51.586 250.1 3.9 249 12.7
2010-04-30 11:37:51 51°17.955 2°51.578 258.7 3.8 258 12.2
2010-04-30 11:37:55 51°17.955 2°51.572 264.4 3.6 267 12.7
2010-04-30 11:38:01 51°17.956 2°51.563 272.5 3.4 275 12.6
2010-04-30 11:38:05 51°17.957 2°51.558 280 2.8 286 12.5
2010-04-30 11:38:11 51°17.958 2°51.552 285.6 2.3 291 13
2010-04-30 11:38:15 51°17.959 2°51.549 290.1 2 303 12.7
2010-04-30 11:38:21 51°17.961 2°51.546 294.4 1.6 314 12.5
2010-04-30 11:38:26 51°17.962 2°51.544 299.2 1.5 324 12.8
2010-04-30 11:38:31 51°17.964 2°51.543 302.7 1.3 332 12.9
2010-04-30 11:38:36 51°17.966 2°51.542 306 1.1 343 12.7
2010-04-30 11:38:41 51°17.967 2°51.542 309.1 1 9 12.3
2010-04-30 11:38:46 51°17.968 2°51.543 312.2 1 16 12.6
2010-04-30 11:38:51 51°17.969 2°51.543 315.9 1 18 13
2010-04-30 11:38:55 51°17.97 2°51.544 318.1 1.1 18 12.9
2010-04-30 11:39:01 51°17.972 2°51.545 319.4 1 21 12.6
2010-04-30 11:39:06 51°17.973 2°51.546 320.2 1 19 12.6
2010-04-30 11:39:11 51°17.975 2°51.547 321.2 1 25 12.7
2010-04-30 11:39:15 51°17.976 2°51.548 321.7 1.1 32 12.7
2010-04-30 11:39:21 51°17.977 2°51.549 322.3 1 34 13.1
2010-04-30 11:39:26 51°17.978 2°51.55 321.6 1.2 32 13.1
2010-04-30 11:39:31 51°17.98 2°51.552 320.8 1 35 13.2
2010-04-30 11:39:35 51°17.98 2°51.552 320 1 38 13.1
2010-04-30 11:39:41 51°17.982 2°51.554 319.5 0.9 41 13.2
2010-04-30 11:39:46 51°17.983 2°51.555 318.8 1.1 40 12.8
2010-04-30 11:39:51 51°17.984 2°51.557 317.6 0.9 45 12.9
2010-04-30 11:39:55 51°17.984 2°51.558 317.3 1 47 12.8
2010-04-30 11:40:01 51°17.985 2°51.56 316.7 0.9 50 12.6
2010-04-30 11:40:05 51°17.986 2°51.561 316.1 0.9 57 12.5
2010-04-30 11:40:11 51°17.987 2°51.564 316 1 58 12.9
2010-04-30 11:40:15 51°17.988 2°51.565 316 1 62 12.6
2010-04-30 11:40:21 51°17.989 2°51.568 316 1.2 60 13
2010-04-30 11:40:26 51°17.989 2°51.57 316.2 1 62 13
2010-04-30 11:40:31 51°17.99 2°51.572 316 1.1 59 12.9
2010-04-30 11:40:36 51°17.991 2°51.574 316.1 1 62 12.5
2010-04-30 11:40:41 51°17.991 2°51.577 316.2 1.2 71 12.6
2010-04-30 11:40:46 51°17.992 2°51.579 316.7 1.2 71 12.5
2010-04-30 11:40:51 51°17.993 2°51.582 317.3 1.1 75 12.5
2010-04-30 11:40:55 51°17.993 2°51.584 317.5 1.4 73 13.1
2010-04-30 11:41:01 51°17.994 2°51.587 317.6 1.4 73 13.2
2010-04-30 11:41:06 51°17.994 2°51.59 317.9 1.3 76 12.9
2010-04-30 11:41:11 51°17.995 2°51.593 318.2 1.4 72 12.6
2010-04-30 11:41:15 51°17.995 2°51.595 318.7 1.2 76 12.8
2010-04-30 11:41:21 51°17.996 2°51.598 319.3 1.4 71 12.7
2010-04-30 11:41:26 51°17.996 2°51.601 320 1.3 79 12.6
2010-04-30 11:41:31 51°17.997 2°51.604 320.7 1.5 73 12.9
2010-04-30 11:41:35 51°17.997 2°51.606 321.6 1.4 76 13.4
2010-04-30 11:41:40 51°17.997 2°51.609 322.6 1.5 73 13
2010-04-30 11:41:46 51°17.998 2°51.613 323.6 1.4 79 12.6
2010-04-30 11:41:51 51°17.998 2°51.616 324.5 1.4 80 12.4
2010-04-30 11:41:55 51°17.999 2°51.618 325.3 1.4 79 12.7
2010-04-30 11:42:01 51°17.999 2°51.622 326.2 1.4 82 12.6
2010-04-30 11:42:05 51°17.999 2°51.624 327.4 1.5 81 12.4
2010-04-30 11:42:11 51°17.999 2°51.628 328.8 1.4 82 12.2
2010-04-30 11:42:15 51°18 2°51.631 330.2 1.5 82 12.4
2010-04-30 11:42:21 51°18 2°51.635 332.2 1.5 85 12.8
2010-04-30 11:42:26 51°18 2°51.639 333.8 1.6 85 13.1
2010-04-30 11:42:31 51°18 2°51.642 335.1 1.5 87 13.3
2010-04-30 11:42:36 51°18.001 2°51.645 336.4 1.5 86 13
2010-04-30 11:42:41 51°18.001 2°51.648 337.9 1.4 89 12.7
2010-04-30 11:42:46 51°18.001 2°51.652 339.2 1.5 88 12.5
2010-04-30 11:42:51 51°18.001 2°51.655 340.5 1.3 91 12.7
2010-04-30 11:42:55 51°18.001 2°51.657 341.3 1.4 88 12.7
2010-04-30 11:43:01 51°18.001 2°51.661 342.6 1.4 90 12.6
2010-04-30 11:43:05 51°18.001 2°51.664 343.6 1.5 89 12.6
2010-04-30 11:43:11 51°18.001 2°51.668 344.4 1.4 91 12.6
2010-04-30 11:43:15 51°18.001 2°51.67 345.2 1.4 91 12.5
2010-04-30 11:43:21 51°18.001 2°51.674 346.6 1.5 90 12.5
2010-04-30 11:43:26 51°18.001 2°51.678 347.3 1.4 91 12.7
2010-04-30 11:43:31 51°18.001 2°51.681 347.9 1.5 89 12.7
2010-04-30 11:43:35 51°18.001 2°51.684 348.4 1.5 88 12.2
2010-04-30 11:43:41 51°18.001 2°51.688 349.9 1.5 90 12.4
2010-04-30 11:43:46 51°18.001 2°51.691 351.1 1.6 89 12.5
2010-04-30 11:43:51 51°18.001 2°51.695 352.4 1.4 91 12.9
2010-04-30 11:43:55 51°18.001 2°51.697 353.2 1.5 90 13
2010-04-30 11:44:00 51°18.001 2°51.701 353.9 1.4 90 12.8
2010-04-30 11:44:06 51°18.001 2°51.704 354.2 1.5 91 12.7
2010-04-30 11:44:11 51°18.001 2°51.708 354.7 1.5 90 13
2010-04-30 11:44:15 51°18.001 2°51.71 355 1.4 92 13.1
2010-04-30 11:44:21 51°18.001 2°51.714 355.2 1.5 89 13
2010-04-30 11:44:26 51°18.002 2°51.716 355.3 1.3 88 12.8
2010-04-30 11:44:31 51°18.002 2°51.72 355.3 1.4 89 12.6
2010-04-30 11:44:36 51°18.002 2°51.723 355.2 1.3 88 12.9
2010-04-30 11:44:42 51°18.002 2°51.727 355.1 1.3 88 12.9
2010-04-30 11:44:46 51°18.002 2°51.729 355 1.3 87 12.8
2010-04-30 11:44:51 51°18.003 2°51.733 354.8 1.5 88 12.4
2010-04-30 11:44:55 51°18.003 2°51.736 354.5 1.4 85 12.8
2010-04-30 11:45:01 51°18.003 2°51.74 354.3 1.5 85 12.8
2010-04-30 11:45:06 51°18.004 2°51.743 353.6 1.4 83 12.7
2010-04-30 11:45:11 51°18.003 2°51.747 353.1 1.4 83 12.7
2010-04-30 11:45:16 51°18.003 2°51.75 352.8 1.5 87 12.8
2010-04-30 11:45:21 51°18.004 2°51.753 352.2 1.4 85 13
2010-04-30 11:45:26 51°18.003 2°51.756 351.8 1.5 82 13
2010-04-30 11:45:31 51°18.003 2°51.759 351.5 1.3 85 12.8
2010-04-30 11:45:35 51°18.003 2°51.761 351.4 1.4 83 12.7
2010-04-30 11:45:42 51°18.003 2°51.766 351.3 1.4 86 12.8
2010-04-30 11:45:46 51°18.003 2°51.768 351.3 1.4 88 12.8
2010-04-30 11:45:52 51°18.003 2°51.772 351 1.4 87 12.7
2010-04-30 11:45:55 51°18.003 2°51.774 350.4 1.4 88 12.6
2010-04-30 11:46:02 51°18.004 2°51.779 350.1 1.5 88 13
2010-04-30 11:46:06 51°18.004 2°51.781 349.9 1.4 89 12.7
2010-04-30 11:46:11 51°18.004 2°51.785 350.1 1.5 87 12.9
2010-04-30 11:46:15 51°18.004 2°51.788 349.9 1.5 89 12.9
2010-04-30 11:46:21 51°18.005 2°51.791 349.4 1.5 87 12.6
2010-04-30 11:46:26 51°18.005 2°51.794 349.1 1.4 87 12.5
2010-04-30 11:46:31 51°18.005 2°51.798 348.5 1.6 83 12.8
2010-04-30 11:46:35 51°18.005 2°51.801 348.4 1.5 86 12.7
2010-04-30 11:46:41 51°18.005 2°51.804 347.9 1.5 86 13.1
2010-04-30 11:46:46 51°18.005 2°51.808 347.6 1.6 84 13.2
2010-04-30 11:46:51 51°18.005 2°51.811 347.7 1.5 85 13.2
2010-04-30 11:46:55 51°18.005 2°51.813 347.7 1.4 85 12.7
2010-04-30 11:47:01 51°18.006 2°51.817 347.7 1.5 84 12.8
2010-04-30 11:47:06 51°18.006 2°51.82 347.7 1.4 83 12.9
2010-04-30 11:47:12 51°18.008 2°51.824 347.7 1.5 79 13
2010-04-30 11:47:16 51°18.007 2°51.825 346.3 1.4 71 12.9
2010-04-30 11:47:21 51°18.009 2°51.829 345 1.6 53 12.7
2010-04-30 11:47:26 51°18.01 2°51.832 342.9 1.5 49 13.1
2010-04-30 11:47:31 51°18.012 2°51.835 340.6 1.6 45 13.2
2010-04-30 11:47:35 51°18.013 2°51.836 337.7 1.5 36 12.9
2010-04-30 11:47:41 51°18.015 2°51.838 334.7 1.5 30 12.8
2010-04-30 11:47:46 51°18.017 2°51.84 332.1 1.6 25 13.2
2010-04-30 11:47:51 51°18.019 2°51.841 329.1 1.5 21 13
2010-04-30 11:47:55 51°18.021 2°51.841 326.4 1.5 18 12.8
2010-04-30 11:48:01 51°18.023 2°51.842 323.1 1.5 12 12.9
2010-04-30 11:48:06 51°18.025 2°51.843 319.9 1.4 5 12.7
2010-04-30 11:48:11 51°18.027 2°51.843 317.1 1.4 358 12.8
2010-04-30 11:48:15 51°18.029 2°51.842 314 1.4 355 12.9
2010-04-30 11:48:21 51°18.031 2°51.842 310.8 1.3 354 12.9
2010-04-30 11:48:26 51°18.033 2°51.841 308.4 1.3 347 13.2
2010-04-30 11:48:31 51°18.034 2°51.84 304.5 1.2 339 13.2
2010-04-30 11:48:35 51°18.036 2°51.839 301.6 1.6 336 13.3
2010-04-30 11:48:41 51°18.038 2°51.837 297.1 1.6 325 12.9
2010-04-30 11:48:46 51°18.04 2°51.835 293.4 1.6 322 12.7
2010-04-30 11:48:51 51°18.041 2°51.832 289.4 1.6 311 13.1
2010-04-30 11:48:55 51°18.042 2°51.83 285 1.6 298 13.2
2010-04-30 11:49:01 51°18.043 2°51.825 280.3 1.8 292 13.1
2010-04-30 11:49:06 51°18.044 2°51.821 276.6 1.8 282 12.7
2010-04-30 11:49:11 51°18.044 2°51.817 270.5 1.9 274 13.2
2010-04-30 11:49:15 51°18.044 2°51.814 265.3 2 262 13.1
2010-04-30 11:49:21 51°18.043 2°51.808 259.8 2.1 254 13
2010-04-30 11:49:26 51°18.041 2°51.804 253.7 2.2 241 13
2010-04-30 11:49:31 51°18.039 2°51.8 247.3 2.3 231 12.8
2010-04-30 11:49:36 51°18.037 2°51.797 240.4 2.5 219 13
2010-04-30 11:49:41 51°18.034 2°51.794 233.1 2.5 210 13
2010-04-30 11:49:46 51°18.03 2°51.792 227.3 2.7 202 13.2
2010-04-30 11:49:51 51°18.026 2°51.791 218.1 2.9 189 12.8
2010-04-30 11:49:55 51°18.023 2°51.791 211.9 3 184 12.9
2010-04-30 11:50:01 51°18.018 2°51.792 202.1 3.3 171 13.2
2010-04-30 11:50:06 51°18.013 2°51.793 194.4 3.5 169 13.3
2010-04-30 11:50:11 51°18.008 2°51.796 185.9 3.8 162 12.9
2010-04-30 11:50:15 51°18.004 2°51.798 178.9 4.2 160 12.7
2010-04-30 11:50:21 51°17.996 2°51.803 175.1 5.1 159 12.7
2010-04-30 11:50:26 51°17.988 2°51.808 173.1 6 159 12.8
2010-04-30 11:50:31 51°17.98 2°51.813 171.1 6.6 160 13.1
2010-04-30 11:50:35 51°17.972 2°51.818 170.1 7.4 159 13.3
2010-04-30 11:50:40 51°17.962 2°51.824 169.3 7.8 158 12.9
2010-04-30 11:50:46 51°17.949 2°51.831 168.1 8.5 161 12.8
2010-04-30 11:50:51 51°17.937 2°51.839 167.9 9.3 160 12.8
2010-04-30 11:50:55 51°17.926 2°51.845 167.7 10.1 160 12.9
2010-04-30 11:51:01 51°17.909 2°51.854 167 10.8 160 12.5
2010-04-30 11:51:06 51°17.894 2°51.862 166.1 11.4 160 12.8
2010-04-30 11:51:11 51°17.879 2°51.872 166 11.8 159 12.7
2010-04-30 11:51:15 51°17.867 2°51.878 165.4 12 161 12.3
2010-04-30 11:51:20 51°17.85 2°51.889 164 12.6 156 12.4
2010-04-30 11:51:26 51°17.831 2°51.902 162.4 12.8 159 12.3
2010-04-30 11:51:31 51°17.815 2°51.914 161.1 12.9 156 12.5
2010-04-30 11:51:35 51°17.802 2°51.923 161.6 12.7 156 12.5
2010-04-30 11:51:41 51°17.782 2°51.937 160.5 12.8 155 12.4
2010-04-30 11:51:46 51°17.766 2°51.949 159.4 13 155 12.6
2010-04-30 11:51:51 51°17.75 2°51.963 157.6 13.3 151 12.6
2010-04-30 11:51:56 51°17.734 2°51.977 154.9 13.4 151 12.3
2010-04-30 11:52:01 51°17.718 2°51.992 154.3 13.2 150 12.3
2010-04-30 11:52:06 51°17.703 2°52.007 153.9 13 148 12.8
2010-04-30 11:52:11 51°17.687 2°52.024 151.6 13.3 146 12.8
2010-04-30 11:52:15 51°17.675 2°52.038 149.2 13.5 145 13
2010-04-30 11:52:21 51°17.657 2°52.058 148 13.4 144 13.4
2010-04-30 11:52:26 51°17.642 2°52.078 146.9 13.6 141 13.6
2010-04-30 11:52:31 51°17.628 2°52.096 144.9 13.4 141 13.7
2010-04-30 11:52:35 51°17.616 2°52.111 143.8 13.5 138 13.7
2010-04-30 11:52:40 51°17.602 2°52.131 142.2 13.5 143 13.5
2010-04-30 11:52:46 51°17.584 2°52.153 144.5 13.5 141 13.8
2010-04-30 11:52:51 51°17.569 2°52.168 147.7 13.2 149 13.5
2010-04-30 11:52:55 51°17.556 2°52.18 150.6 13.1 151 13.6
2010-04-30 11:53:01 51°17.537 2°52.195 156.1 13 153 13.6
2010-04-30 11:53:06 51°17.521 2°52.209 156.1 13.1 152 13.5
2010-04-30 11:53:11 51°17.505 2°52.223 155.3 13.2 149 13.5
2010-04-30 11:53:15 51°17.493 2°52.237 153.2 13.2 147 13.7
2010-04-30 11:53:21 51°17.475 2°52.256 150.3 13.1 144 13.4
2010-04-30 11:53:26 51°17.461 2°52.276 147.2 13.5 138 12.9
2010-04-30 11:53:31 51°17.447 2°52.296 143.2 13.5 140 12.5
2010-04-30 11:53:35 51°17.437 2°52.313 140.5 13.4 133 12.9
2010-04-30 11:53:41 51°17.422 2°52.339 138.6 13.4 132 12.8
2010-04-30 11:53:46 51°17.41 2°52.363 134.5 13.5 129 12.7
2010-04-30 11:53:51 51°17.398 2°52.386 133 13.4 130 12.7
2010-04-30 11:53:55 51°17.389 2°52.405 132.9 13.7 126 12.8
2010-04-30 11:54:01 51°17.374 2°52.433 131.7 13.7 131 12.1
2010-04-30 11:54:05 51°17.365 2°52.452 132.4 13.7 127 12.8
2010-04-30 11:54:11 51°17.351 2°52.479 133.2 13.5 132 12.5
2010-04-30 11:54:15 51°17.341 2°52.498 133.9 13.5 128 12.3
2010-04-30 11:54:21 51°17.327 2°52.526 134.1 13.6 131 12.2
2010-04-30 11:54:26 51°17.314 2°52.548 134.4 13.6 132 12.4
2010-04-30 11:54:31 51°17.301 2°52.569 136 13.5 134 12.5
2010-04-30 11:54:35 51°17.292 2°52.588 136.6 13.3 133 12.5
2010-04-30 11:54:41 51°17.276 2°52.613 139.1 13.4 134 12.3
2010-04-30 11:54:46 51°17.262 2°52.634 138.2 13.5 136 12.3
2010-04-30 11:54:51 51°17.248 2°52.653 140.8 13.5 138 12.3
2010-04-30 11:54:55 51°17.237 2°52.669 142.4 13.4 140 11.8
2010-04-30 11:55:00 51°17.223 2°52.687 144.2 13.2 144 11.8
2010-04-30 11:55:06 51°17.204 2°52.707 148.8 13.4 146 12.4
2010-04-30 11:55:11 51°17.189 2°52.722 151.5 13.2 149 12.2
2010-04-30 11:55:15 51°17.176 2°52.732 154.2 13.1 152 12.1
2010-04-30 11:55:20 51°17.16 2°52.746 156.4 13 155 11.8
2010-04-30 11:55:26 51°17.14 2°52.758 160.3 12.9 158 12.6
2010-04-30 11:55:31 51°17.123 2°52.768 163.8 13.1 159 12.2
2010-04-30 11:55:35 51°17.109 2°52.774 166.2 12.9 166 12
2010-04-30 11:55:41 51°17.088 2°52.785 168.1 12.8 161 12
2010-04-30 11:55:46 51°17.072 2°52.794 167.5 12.8 161 12.5
2010-04-30 11:55:51 51°17.055 2°52.804 166.1 12.9 159 11.9
2010-04-30 11:55:56 51°17.038 2°52.816 163.5 13.2 155 12
2010-04-30 11:56:01 51°17.022 2°52.827 161.4 13.1 156 11.6
2010-04-30 11:56:06 51°17.006 2°52.841 159.5 13.1 153 11.9
2010-04-30 11:56:11 51°16.99 2°52.854 158.5 13 152 11.4
2010-04-30 11:56:15 51°16.977 2°52.867 156.2 13.1 148 11.7
2010-04-30 11:56:21 51°16.959 2°52.886 154 13.2 148 11.5
2010-04-30 11:56:26 51°16.944 2°52.904 151.2 13.3 143 11.8
2010-04-30 11:56:31 51°16.929 2°52.92 150.1 13 145 11
2010-04-30 11:56:36 51°16.916 2°52.941 146.8 13.6 136 11.4
2010-04-30 11:56:41 51°16.901 2°52.96 143.8 13.6 141 11.2
2010-04-30 11:56:46 51°16.889 2°52.982 143.2 13.6 133 11.3
2010-04-30 11:56:51 51°16.876 2°53.004 139.5 13.5 133 11.3
2010-04-30 11:56:55 51°16.866 2°53.022 137.3 13.3 131 11.2
2010-04-30 11:57:00 51°16.855 2°53.046 135.3 13.6 126 10.8
2010-04-30 11:57:06 51°16.841 2°53.075 131.8 13.8 128 11.4
2010-04-30 11:57:11 51°16.83 2°53.1 132 13.9 123 12.2
2010-04-30 11:57:15 51°16.822 2°53.121 128.9 13.8 123 12.7
2010-04-30 11:57:21 51°16.811 2°53.154 126.3 14 117 13
2010-04-30 11:57:26 51°16.801 2°53.18 123.2 13.8 119 13.2
2010-04-30 11:57:31 51°16.794 2°53.208 121.2 13.3 113 13.3
2010-04-30 11:57:35 51°16.788 2°53.228 119.8 12.5 114 13.5
2010-04-30 11:57:40 51°16.783 2°53.253 117 12.1 108 13.6
2010-04-30 11:57:46 51°16.777 2°53.282 112.9 11.3 109 13.6
2010-04-30 11:57:51 51°16.771 2°53.304 114.6 10.7 111 13.6
2010-04-30 11:57:55 51°16.767 2°53.321 115.7 10.1 113 13.8
2010-04-30 11:58:01 51°16.76 2°53.343 121.7 9.3 119 13.9
2010-04-30 11:58:06 51°16.753 2°53.358 128.6 8.5 127 13.8
2010-04-30 11:58:11 51°16.745 2°53.37 136.1 7.7 134 13.7
2010-04-30 11:58:15 51°16.74 2°53.379 143.8 7.2 137 13.8
2010-04-30 11:58:21 51°16.731 2°53.389 151.3 6.5 144 13.7
2010-04-30 11:58:26 51°16.724 2°53.397 157.9 6.1 147 13.9
2010-04-30 11:58:31 51°16.717 2°53.402 164.2 5.6 153 14.1
2010-04-30 11:58:36 51°16.71 2°53.407 170.7 5.2 158 13.9
2010-04-30 11:58:41 51°16.704 2°53.41 176.9 4.9 161 13.9
2010-04-30 11:58:46 51°16.697 2°53.412 182.8 4.6 168 14.1
2010-04-30 11:58:51 51°16.691 2°53.413 189.5 4.4 173 14
2010-04-30 11:58:55 51°16.686 2°53.414 195.8 4.2 180 14.3
2010-04-30 11:59:01 51°16.68 2°53.412 202.6 3.9 187 13.9
2010-04-30 11:59:06 51°16.675 2°53.411 208.8 3.7 193 14.1
2010-04-30 11:59:11 51°16.671 2°53.408 215.2 3.4 203 14
2010-04-30 11:59:15 51°16.668 2°53.405 222 3.2 208 14.4
2010-04-30 11:59:21 51°16.664 2°53.4 228.5 3 219 14.3
2010-04-30 11:59:26 51°16.661 2°53.395 234.8 2.9 227 14.3
2010-04-30 11:59:31 51°16.659 2°53.39 241.6 2.7 240 13.8
2010-04-30 11:59:35 51°16.658 2°53.386 248.2 2.6 246 14.1
2010-04-30 11:59:41 51°16.657 2°53.38 254.8 2.2 262 14.1
2010-04-30 11:59:46 51°16.657 2°53.376 260.8 1.8 266 14.3
2010-04-30 11:59:51 51°16.657 2°53.373 264.4 1.6 276 14.1
2010-04-30 11:59:55 51°16.658 2°53.37 266.9 1.2 281 14.1
2010-04-30 12:00:00 51°16.658 2°53.369 268.7 0.9 296 14.2
2010-04-30 12:00:06 51°16.659 2°53.367 272.2 0.8 315 14.2
2010-04-30 12:00:11 51°16.66 2°53.366 276 0.8 326 14.1
2010-04-30 12:00:15 51°16.661 2°53.365 279.5 1 342 14.2
2010-04-30 12:00:21 51°16.662 2°53.365 282.1 0.9 351 13.9
2010-04-30 12:00:26 51°16.664 2°53.365 284.7 1.2 8 14.1
2010-04-30 12:00:31 51°16.666 2°53.366 287.5 1.1 13 14.4
2010-04-30 12:00:35 51°16.667 2°53.366 290.3 1.3 16 14.1
2010-04-30 12:00:41 51°16.669 2°53.367 292.1 1.3 19 13.8
2010-04-30 12:00:46 51°16.671 2°53.369 294.2 1.4 27 13.9
2010-04-30 12:00:51 51°16.672 2°53.371 296.5 1.5 29 14.1
2010-04-30 12:00:55 51°16.673 2°53.372 297.8 1.4 32 14
2010-04-30 12:01:01 51°16.676 2°53.375 299.2 1.6 38 13.9
2010-04-30 12:01:06 51°16.677 2°53.377 300.6 1.6 44 14.1
2010-04-30 12:01:11 51°16.679 2°53.38 302 1.9 47 14.4
2010-04-30 12:01:15 51°16.68 2°53.382 303.5 1.9 49 14.5
2010-04-30 12:01:21 51°16.683 2°53.386 305.5 1.9 50 14.1
2010-04-30 12:01:26 51°16.684 2°53.389 307.3 1.9 50 14
2010-04-30 12:01:31 51°16.686 2°53.393 308.9 2 52 14.2
2010-04-30 12:01:35 51°16.688 2°53.396 310.2 2.1 52 14.3
2010-04-30 12:01:41 51°16.69 2°53.4 311.5 2.1 49 14.4
2010-04-30 12:01:46 51°16.692 2°53.403 312.2 2 50 14.1
2010-04-30 12:01:51 51°16.694 2°53.407 312.9 2.1 50 14.3
2010-04-30 12:01:55 51°16.695 2°53.409 313.5 2 50 14.4
2010-04-30 12:02:00 51°16.698 2°53.413 313.8 2 50 14.4
2010-04-30 12:02:06 51°16.7 2°53.417 314.1 2.1 49 14.6
2010-04-30 12:02:11 51°16.702 2°53.42 313.9 2.2 47 14.7
2010-04-30 12:02:15 51°16.703 2°53.423 313.8 2.1 48 14.4
2010-04-30 12:02:21 51°16.706 2°53.427 314 2.1 47 14.2
2010-04-30 12:02:26 51°16.708 2°53.43 314.3 2.1 46 13.9
2010-04-30 12:02:31 51°16.71 2°53.434 314.4 2.1 48 14.2
2010-04-30 12:02:35 51°16.711 2°53.437 314.9 2.1 46 14.1
2010-04-30 12:02:40 51°16.714 2°53.44 314.9 2 45 14
2010-04-30 12:02:46 51°16.716 2°53.443 314.7 2 41 14.1
2010-04-30 12:02:51 51°16.718 2°53.446 313.7 2 39 14.2
2010-04-30 12:02:55 51°16.72 2°53.448 312.7 2 36 13.9
2010-04-30 12:03:01 51°16.723 2°53.451 311.3 2 34 14.1
2010-04-30 12:03:05 51°16.725 2°53.453 310 1.9 32 13.9
2010-04-30 12:03:11 51°16.727 2°53.456 308.4 2 32 14
2010-04-30 12:03:15 51°16.729 2°53.457 306.9 1.9 30 14.3
2010-04-30 12:03:21 51°16.732 2°53.46 305 1.9 29 14.4
2010-04-30 12:03:26 51°16.734 2°53.462 303.5 1.8 29 14.1
2010-04-30 12:03:31 51°16.737 2°53.463 302.5 1.7 24 14
2010-04-30 12:03:35 51°16.738 2°53.464 301.4 1.8 20 13.8
2010-04-30 12:03:40 51°16.74 2°53.465 299.2 1.6 14 14.2
2010-04-30 12:03:46 51°16.743 2°53.466 296.1 1.6 7 14.3
2010-04-30 12:03:51 51°16.745 2°53.465 292.8 1.6 351 14.1
2010-04-30 12:03:55 51°16.747 2°53.464 288.3 1.7 336 14.3
2010-04-30 12:04:01 51°16.749 2°53.462 282.6 1.6 317 14.4
2010-04-30 12:04:06 51°16.75 2°53.458 276.1 1.6 302 14.1
2010-04-30 12:04:11 51°16.751 2°53.455 269.5 1.6 283 14.2
2010-04-30 12:04:15 51°16.751 2°53.452 262.2 1.8 268 14.1
2010-04-30 12:04:21 51°16.75 2°53.447 254.7 1.9 248 14.1
2010-04-30 12:04:26 51°16.748 2°53.444 248.6 2.1 235 14.2